Terminal Aerodrome Forecast
Issued by NWS Cheyenne, WY

Home | Current Version | Previous Version | Text Only | Print | Product List | Glossary On
Versions: 1 2 3 4 5 6 7 8 9 10 11 12 13 14
000
FTUS45 KCYS 230521
TAFCYS
TAF
KCYS 230521Z 2306/2406 29005KT P6SM FEW250
     FM230700 30015G30KT P6SM SCT200
     FM231200 33017KT P6SM SCT060 BKN100
     FM231600 35020G30KT P6SM SCT060 BKN080=

USA.gov is the U.S. government's official web portal to all federal, state and local government web resources and services.